sensor_id;sensor_type;location;lat;lon;timestamp;P1;durP1;ratioP1;P2;durP2;ratioP2
12369;SDS011;6249;52.128;9.986;2023-07-31T00:05:59;3.20;;;1.52;;
12369;SDS011;6249;52.128;9.986;2023-07-31T00:16:00;6.10;;;1.87;;
12369;SDS011;6249;52.128;9.986;2023-07-31T00:26:02;5.13;;;2.00;;
12369;SDS011;6249;52.128;9.986;2023-07-31T00:36:03;4.15;;;1.63;;
12369;SDS011;6249;52.128;9.986;2023-07-31T00:46:06;5.70;;;1.70;;
12369;SDS011;6249;52.128;9.986;2023-07-31T00:56:07;5.97;;;2.00;;
12369;SDS011;6249;52.128;9.986;2023-07-31T01:06:14;5.07;;;1.60;;
12369;SDS011;6249;52.128;9.986;2023-07-31T01:16:25;8.60;;;1.70;;
12369;SDS011;6249;52.128;9.986;2023-07-31T01:26:30;7.40;;;1.37;;
12369;SDS011;6249;52.128;9.986;2023-07-31T01:36:36;2.73;;;1.10;;
12369;SDS011;6249;52.128;9.986;2023-07-31T01:46:37;2.43;;;1.00;;
12369;SDS011;6249;52.128;9.986;2023-07-31T01:56:38;3.23;;;1.23;;
12369;SDS011;6249;52.128;9.986;2023-07-31T02:06:38;4.63;;;1.63;;
12369;SDS011;6249;52.128;9.986;2023-07-31T02:16:42;3.10;;;1.23;;
12369;SDS011;6249;52.128;9.986;2023-07-31T02:26:43;2.47;;;1.17;;
12369;SDS011;6249;52.128;9.986;2023-07-31T02:36:43;2.70;;;1.17;;
12369;SDS011;6249;52.128;9.986;2023-07-31T02:46:47;3.07;;;1.30;;
12369;SDS011;6249;52.128;9.986;2023-07-31T02:56:49;2.30;;;1.20;;
12369;SDS011;6249;52.128;9.986;2023-07-31T03:06:50;3.90;;;1.70;;
12369;SDS011;6249;52.128;9.986;2023-07-31T03:16:50;4.00;;;1.10;;
12369;SDS011;6249;52.128;9.986;2023-07-31T03:26:53;5.27;;;1.13;;
12369;SDS011;6249;52.128;9.986;2023-07-31T03:36:54;4.40;;;1.63;;
12369;SDS011;6249;52.128;9.986;2023-07-31T03:46:54;5.37;;;1.50;;
12369;SDS011;6249;52.128;9.986;2023-07-31T03:56:58;2.90;;;1.53;;
12369;SDS011;6249;52.128;9.986;2023-07-31T04:07:01;4.17;;;1.83;;
12369;SDS011;6249;52.128;9.986;2023-07-31T04:17:01;4.87;;;1.90;;
12369;SDS011;6249;52.128;9.986;2023-07-31T04:27:02;4.00;;;2.00;;
12369;SDS011;6249;52.128;9.986;2023-07-31T04:37:03;6.50;;;2.60;;
12369;SDS011;6249;52.128;9.986;2023-07-31T04:47:03;6.10;;;2.10;;
12369;SDS011;6249;52.128;9.986;2023-07-31T04:57:04;5.47;;;2.10;;
12369;SDS011;6249;52.128;9.986;2023-07-31T05:07:05;8.27;;;2.93;;
12369;SDS011;6249;52.128;9.986;2023-07-31T05:17:06;12.60;;;5.55;;
12369;SDS011;6249;52.128;9.986;2023-07-31T05:27:07;11.00;;;6.65;;
12369;SDS011;6249;52.128;9.986;2023-07-31T05:37:10;14.67;;;6.20;;
12369;SDS011;6249;52.128;9.986;2023-07-31T05:47:11;11.00;;;5.93;;
12369;SDS011;6249;52.128;9.986;2023-07-31T05:57:16;9.30;;;6.27;;
12369;SDS011;6249;52.128;9.986;2023-07-31T06:07:19;9.70;;;5.53;;
12369;SDS011;6249;52.128;9.986;2023-07-31T06:17:22;8.83;;;4.73;;
12369;SDS011;6249;52.128;9.986;2023-07-31T06:27:23;14.30;;;5.40;;
12369;SDS011;6249;52.128;9.986;2023-07-31T06:37:24;17.40;;;7.17;;
12369;SDS011;6249;52.128;9.986;2023-07-31T06:47:24;24.20;;;8.57;;
12369;SDS011;6249;52.128;9.986;2023-07-31T06:57:27;29.73;;;9.87;;
12369;SDS011;6249;52.128;9.986;2023-07-31T07:07:28;22.23;;;10.35;;
12369;SDS011;6249;52.128;9.986;2023-07-31T07:17:29;34.43;;;18.83;;
12369;SDS011;6249;52.128;9.986;2023-07-31T07:27:33;16.87;;;6.30;;
12369;SDS011;6249;52.128;9.986;2023-07-31T07:37:33;15.15;;;7.00;;
12369;SDS011;6249;52.128;9.986;2023-07-31T07:47:34;18.87;;;7.43;;
12369;SDS011;6249;52.128;9.986;2023-07-31T07:57:34;17.73;;;8.17;;
12369;SDS011;6249;52.128;9.986;2023-07-31T08:07:35;21.43;;;8.43;;
12369;SDS011;6249;52.128;9.986;2023-07-31T08:17:38;30.40;;;11.13;;
12369;SDS011;6249;52.128;9.986;2023-07-31T08:27:44;19.37;;;9.90;;
12369;SDS011;6249;52.128;9.986;2023-07-31T08:37:44;18.37;;;8.10;;
12369;SDS011;6249;52.128;9.986;2023-07-31T08:47:46;12.90;;;7.13;;
12369;SDS011;6249;52.128;9.986;2023-07-31T08:57:48;15.87;;;6.77;;
12369;SDS011;6249;52.128;9.986;2023-07-31T09:07:53;12.00;;;6.30;;
12369;SDS011;6249;52.128;9.986;2023-07-31T09:18:00;13.67;;;7.47;;
12369;SDS011;6249;52.128;9.986;2023-07-31T09:28:04;18.07;;;7.27;;
12369;SDS011;6249;52.128;9.986;2023-07-31T09:38:08;10.37;;;5.50;;
12369;SDS011;6249;52.128;9.986;2023-07-31T09:48:11;9.53;;;5.17;;
12369;SDS011;6249;52.128;9.986;2023-07-31T09:58:16;6.97;;;3.67;;
12369;SDS011;6249;52.128;9.986;2023-07-31T10:08:19;8.20;;;4.23;;
12369;SDS011;6249;52.128;9.986;2023-07-31T10:18:23;6.43;;;3.40;;
12369;SDS011;6249;52.128;9.986;2023-07-31T10:28:27;9.07;;;3.87;;
12369;SDS011;6249;52.128;9.986;2023-07-31T10:38:29;9.23;;;3.57;;
12369;SDS011;6249;52.128;9.986;2023-07-31T10:48:35;5.63;;;3.30;;
12369;SDS011;6249;52.128;9.986;2023-07-31T10:58:43;5.63;;;2.67;;
12369;SDS011;6249;52.128;9.986;2023-07-31T11:08:47;9.00;;;3.17;;
12369;SDS011;6249;52.128;9.986;2023-07-31T11:18:49;6.47;;;2.90;;
12369;SDS011;6249;52.128;9.986;2023-07-31T11:28:55;5.10;;;2.50;;
12369;SDS011;6249;52.128;9.986;2023-07-31T11:39:04;4.00;;;2.13;;
12369;SDS011;6249;52.128;9.986;2023-07-31T11:49:08;5.13;;;2.80;;
12369;SDS011;6249;52.128;9.986;2023-07-31T11:59:08;5.87;;;2.33;;
12369;SDS011;6249;52.128;9.986;2023-07-31T12:09:09;5.70;;;2.50;;
12369;SDS011;6249;52.128;9.986;2023-07-31T12:19:12;3.80;;;1.70;;
12369;SDS011;6249;52.128;9.986;2023-07-31T12:29:13;6.10;;;2.17;;
12369;SDS011;6249;52.128;9.986;2023-07-31T12:39:14;3.87;;;2.03;;
12369;SDS011;6249;52.128;9.986;2023-07-31T12:49:15;5.10;;;2.00;;
12369;SDS011;6249;52.128;9.986;2023-07-31T12:59:15;2.60;;;1.10;;
12369;SDS011;6249;52.128;9.986;2023-07-31T13:09:16;3.10;;;1.20;;
12369;SDS011;6249;52.128;9.986;2023-07-31T13:19:19;2.93;;;0.93;;
12369;SDS011;6249;52.128;9.986;2023-07-31T13:29:19;4.23;;;0.87;;
12369;SDS011;6249;52.128;9.986;2023-07-31T13:39:21;3.13;;;0.73;;
12369;SDS011;6249;52.128;9.986;2023-07-31T13:49:24;5.70;;;1.07;;
12369;SDS011;6249;52.128;9.986;2023-07-31T13:59:25;2.00;;;0.80;;
12369;SDS011;6249;52.128;9.986;2023-07-31T14:09:28;3.90;;;1.00;;
12369;SDS011;6249;52.128;9.986;2023-07-31T14:19:31;2.70;;;1.07;;
12369;SDS011;6249;52.128;9.986;2023-07-31T14:29:32;2.50;;;0.70;;
12369;SDS011;6249;52.128;9.986;2023-07-31T14:39:32;2.00;;;0.70;;
12369;SDS011;6249;52.128;9.986;2023-07-31T14:49:35;3.40;;;1.03;;
12369;SDS011;6249;52.128;9.986;2023-07-31T14:59:36;2.60;;;1.30;;
12369;SDS011;6249;52.128;9.986;2023-07-31T15:09:41;3.30;;;1.30;;
12369;SDS011;6249;52.128;9.986;2023-07-31T15:19:41;2.83;;;1.40;;
12369;SDS011;6249;52.128;9.986;2023-07-31T15:29:47;3.77;;;1.50;;
12369;SDS011;6249;52.128;9.986;2023-07-31T15:39:49;6.23;;;1.47;;
12369;SDS011;6249;52.128;9.986;2023-07-31T15:49:52;3.83;;;1.50;;
12369;SDS011;6249;52.128;9.986;2023-07-31T15:59:52;3.90;;;1.33;;
12369;SDS011;6249;52.128;9.986;2023-07-31T16:09:53;4.87;;;1.53;;
12369;SDS011;6249;52.128;9.986;2023-07-31T16:19:54;4.30;;;1.47;;
12369;SDS011;6249;52.128;9.986;2023-07-31T16:29:56;2.80;;;1.33;;
12369;SDS011;6249;52.128;9.986;2023-07-31T16:40:00;2.80;;;1.20;;
12369;SDS011;6249;52.128;9.986;2023-07-31T16:50:00;2.97;;;1.23;;
12369;SDS011;6249;52.128;9.986;2023-07-31T17:00:01;3.07;;;1.33;;
12369;SDS011;6249;52.128;9.986;2023-07-31T17:10:04;3.03;;;1.73;;
12369;SDS011;6249;52.128;9.986;2023-07-31T17:20:06;3.57;;;1.90;;
12369;SDS011;6249;52.128;9.986;2023-07-31T17:30:09;3.70;;;1.87;;
12369;SDS011;6249;52.128;9.986;2023-07-31T17:40:11;4.77;;;2.30;;
12369;SDS011;6249;52.128;9.986;2023-07-31T17:50:13;4.50;;;2.17;;
12369;SDS011;6249;52.128;9.986;2023-07-31T18:00:14;4.60;;;1.90;;
12369;SDS011;6249;52.128;9.986;2023-07-31T18:10:18;4.53;;;2.20;;
12369;SDS011;6249;52.128;9.986;2023-07-31T18:20:18;4.43;;;2.10;;
12369;SDS011;6249;52.128;9.986;2023-07-31T18:30:19;4.37;;;2.50;;
12369;SDS011;6249;52.128;9.986;2023-07-31T18:40:19;3.60;;;2.20;;
12369;SDS011;6249;52.128;9.986;2023-07-31T18:50:26;6.30;;;3.10;;
12369;SDS011;6249;52.128;9.986;2023-07-31T19:00:26;3.67;;;2.03;;
12369;SDS011;6249;52.128;9.986;2023-07-31T19:10:27;5.20;;;2.70;;
12369;SDS011;6249;52.128;9.986;2023-07-31T19:20:30;6.87;;;3.03;;
12369;SDS011;6249;52.128;9.986;2023-07-31T19:30:31;7.10;;;2.40;;
12369;SDS011;6249;52.128;9.986;2023-07-31T19:40:32;5.93;;;3.20;;
12369;SDS011;6249;52.128;9.986;2023-07-31T19:50:33;11.67;;;3.90;;
12369;SDS011;6249;52.128;9.986;2023-07-31T20:00:33;8.95;;;4.70;;
12369;SDS011;6249;52.128;9.986;2023-07-31T20:10:34;13.40;;;5.90;;
12369;SDS011;6249;52.128;9.986;2023-07-31T20:20:35;7.67;;;4.50;;
12369;SDS011;6249;52.128;9.986;2023-07-31T20:30:35;8.90;;;5.40;;
12369;SDS011;6249;52.128;9.986;2023-07-31T20:40:36;11.30;;;5.30;;
12369;SDS011;6249;52.128;9.986;2023-07-31T20:50:36;9.55;;;5.03;;
12369;SDS011;6249;52.128;9.986;2023-07-31T21:00:38;9.63;;;4.27;;
12369;SDS011;6249;52.128;9.986;2023-07-31T21:10:39;9.57;;;4.50;;
12369;SDS011;6249;52.128;9.986;2023-07-31T21:20:44;10.07;;;4.13;;
12369;SDS011;6249;52.128;9.986;2023-07-31T21:30:48;6.90;;;4.53;;
12369;SDS011;6249;52.128;9.986;2023-07-31T21:40:49;8.47;;;4.17;;
12369;SDS011;6249;52.128;9.986;2023-07-31T21:50:49;5.67;;;3.43;;
12369;SDS011;6249;52.128;9.986;2023-07-31T22:00:50;9.17;;;4.50;;
12369;SDS011;6249;52.128;9.986;2023-07-31T22:10:50;6.43;;;2.63;;
12369;SDS011;6249;52.128;9.986;2023-07-31T22:20:51;7.47;;;2.80;;
12369;SDS011;6249;52.128;9.986;2023-07-31T22:30:52;5.47;;;2.30;;
12369;SDS011;6249;52.128;9.986;2023-07-31T22:40:55;4.63;;;2.10;;
12369;SDS011;6249;52.128;9.986;2023-07-31T22:50:55;4.27;;;1.80;;
12369;SDS011;6249;52.128;9.986;2023-07-31T23:11:02;5.03;;;1.93;;
12369;SDS011;6249;52.128;9.986;2023-07-31T23:21:03;2.47;;;1.40;;
12369;SDS011;6249;52.128;9.986;2023-07-31T23:31:04;3.93;;;1.70;;
12369;SDS011;6249;52.128;9.986;2023-07-31T23:41:04;5.50;;;1.60;;
12369;SDS011;6249;52.128;9.986;2023-07-31T23:51:06;4.33;;;1.90;;
